Stations météo

réclame
Mon MeteoGroup
Großer Arber, Allemagne (10791): Température de l'air & dewpoint: 12.11.2018 05:00:00 - 18.11.2018 05:00:00 (CET)Großer Arber, Allemagne (10791): Vitesse du vent & gusts: 12.11.2018 05:00:00 - 18.11.2018 05:00:00 (CET)Großer Arber, Allemagne (10791): Direction du vent: 12.11.2018 05:00:00 - 18.11.2018 05:00:00 (CET)Großer Arber, Allemagne (10791): visibility: 12.11.2018 05:00:00 - 18.11.2018 05:00:00 (CET)Großer Arber, Allemagne (10791): Ensoleillement: 12.11.2018 05:00:00 - 18.11.2018 05:00:00 (CET)Großer Arber, Allemagne (10791): Quantités de précipitations: 12.11.2018 05:00:00 - 18.11.2018 05:00:00 (CET)
Date & Time tt [°C] td [°C] ff [km/h] ff [knt] fx [km/h] fx [knt] dd vv [km] sd [min] rr [mm]
18.11.2018 05:00:00 -4,0 -6,8 22 12 47 25 ENE 52 0 0,0
18.11.2018 04:00:00 -3,8 -6,2 26 14 41 22 E 52 0 0,0
18.11.2018 03:00:00 -3,5 -6,0 24 13 49 26 E 64 0 0,0
18.11.2018 02:00:00 -3,3 -5,8 27 15 51 27 E 53 0 0,0
18.11.2018 01:00:00 -4,7 -5,9 27 14 46 25 ENE 6 0 0,0
18.11.2018 00:00:00 -3,9 -6,2 25 13 48 26 ENE 39 0 0,0
17.11.2018 23:00:00 -3,5 -5,7 27 14 44 24 E 44 0 0,0
17.11.2018 22:00:00 -4,9 -6,3 26 14 42 23 E 23 0 0,0
17.11.2018 21:00:00 -4,7 -6,2 26 14 45 24 E 23 0 0,0
17.11.2018 20:00:00 -4,9 -6,3 28 15 50 27 E 20 0 0,0
17.11.2018 19:00:00 -5,0 -6,3 27 15 48 26 ENE 21 0 0,0
17.11.2018 18:00:00 -5,0 -5,6 23 13 49 27 ENE 0,8 0 0,0
17.11.2018 17:00:00 -5,1 -5,6 26 14 47 25 ENE 0,1 19 0,0
17.11.2018 16:00:00 -5,5 -6,8 21 11 38 21 ENE 11 60 0,0
17.11.2018 15:00:00 -4,3 -6,3 18 10 37 20 ENE 15 60 0,0
17.11.2018 14:00:00 -3,0 -6,5 19 10 35 19 E 36 60 0,0
17.11.2018 13:00:00 -1,7 -7,8 17 9 42 23 ENE 61 60 0,0
17.11.2018 12:00:00 0,4 -11,1 21 11 42 23 E 53 60 0,0
17.11.2018 11:00:00 0,6 -9,5 23 12 46 25 E 75 60 0,0
17.11.2018 10:00:00 0,1 -8,6 19 10 48 26 E 75 60 0,0
17.11.2018 09:00:00 -0,1 -9,1 22 12 49 27 E 75 60 0,0
17.11.2018 08:00:00 -1,7 -7,6 26 14 48 26 E 64 17 0,0
17.11.2018 07:00:00 -3,0 -5,6 26 14 48 26 E 47 0 0,0
17.11.2018 06:00:00 -2,9 -6,2 23 13 53 29 E 60 0 0,0
17.11.2018 05:00:00 -3,1 -5,9 27 15 55 30 E 46 0 0,0
17.11.2018 04:00:00 -3,3 -5,3 23 12 53 29 ESE 38 0 0,0
17.11.2018 03:00:00 -3,2 -5,1 24 13 57 31 E 22 0 0,0
17.11.2018 02:00:00 -3,3 -5,3 30 16 57 31 ESE 36 0 0,0
17.11.2018 01:00:00 -2,7 -5,6 29 16 57 31 ESE 45 0 0,0
17.11.2018 00:00:00 -3,7 -5,3 25 13 49 27 E 25 0 0,0
16.11.2018 23:00:00 -2,2 -6,2 36 20 58 31 ESE 39 0 0,0
16.11.2018 22:00:00 -3,5 -4,8 28 15 42 23 ESE 36 0 0,0
16.11.2018 21:00:00 -3,4 -3,9 26 14 49 27 E 0,2 0 0,0
16.11.2018 20:00:00 -3,1 -3,5 28 15 48 26 E 0,1 0 0,0
16.11.2018 19:00:00 -3,0 -3,4 23 12 37 20 E 0,1 0 0,0
16.11.2018 18:00:00 -3,5 -3,9 22 12 35 19 E 0,1 0 0,0
16.11.2018 17:00:00 -3,0 -4,4 26 14 37 20 ESE 22 34 0,0
16.11.2018 16:00:00 -1,4 -4,4 18 10 30 16 E 37 60 0,0
16.11.2018 15:00:00 0,2 -3,7 15 8 29 16 E 34 60 0,0
16.11.2018 14:00:00 0,1 -4,5 12 7 30 16 ENE 49 60 0,0
16.11.2018 13:00:00 0,3 -4,4 18 10 31 17 E 47 60 0,0
16.11.2018 12:00:00 0,3 -4,3 20 11 42 23 E 57 60 0,0
16.11.2018 11:00:00 0,9 -5,7 26 14 42 23 E 75 60 0,0
16.11.2018 10:00:00 -0,7 -4,5 22 12 38 20 E 44 60 0,0
16.11.2018 09:00:00 -0,2 -7,7 28 15 45 24 E 75 60 0,0
16.11.2018 08:00:00 -1,0 -7,9 27 15 45 24 E 75 19 0,0
16.11.2018 07:00:00 0,3 -10,5 24 13 40 22 E 75 0 0,0
16.11.2018 06:00:00 0,1 -9,5 21 11 32 18 E 75 0 0,0
16.11.2018 05:00:00 2,3 -15,0 18 10 29 16 E 75 0 0,0
16.11.2018 04:00:00 2,2 -14,8 16 9 27 15 ESE 75 0 0,0
16.11.2018 03:00:00 3,1 -15,3 22 12 34 18 ESE 75 0 0,0
16.11.2018 02:00:00 3,4 -15,1 23 12 31 17 ESE 75 0 0,0
16.11.2018 01:00:00 3,0 -14,0 23 12 33 18 ESE 75 0 0,0
16.11.2018 00:00:00 3,4 -14,8 23 13 34 18 ESE 75 0 0,0
15.11.2018 23:00:00 2,8 -13,0 19 10 31 17 E 75 0 0,0
15.11.2018 22:00:00 3,5 -14,2 18 10 31 17 ESE 75 0 0,0
15.11.2018 21:00:00 3,6 -13,2 24 13 33 18 SE 75 0 0,0
15.11.2018 20:00:00 3,9 -13,3 23 12 31 17 SE 75 0 0,0
15.11.2018 19:00:00 3,5 -11,7 24 13 34 18 ESE 75 0 0,0
15.11.2018 18:00:00 3,5 -12,3 21 11 29 16 E 75 0 0,0
15.11.2018 17:00:00 3,4 -11,9 24 13 31 17 ESE 75 37 0,0
15.11.2018 16:00:00 5,4 -7,2 17 9 22 12 E 75 60 0,0
15.11.2018 15:00:00 5,7 -6,2 14 8 18 10 E 75 60 0,0
15.11.2018 14:00:00 7,3 -9,6 11 6 16 9 E 75 60 0,0
15.11.2018 13:00:00 7,9 -12,9 9 5 23 12 ESE 75 60 0,0
15.11.2018 12:00:00 7,8 -12,7 11 6 22 12 ESE 75 60 0,0
15.11.2018 11:00:00 7,4 -16,9 15 8 28 15 ESE 65 60 0,0
15.11.2018 10:00:00 6,5 -20,9 19 10 27 14 ESE 75 60 0,0
15.11.2018 09:00:00 6,0 -19,9 15 8 21 11 E 75 60 0,0
15.11.2018 08:00:00 5,4 -24,5 18 10 20 11 ESE 75 18 0,0
15.11.2018 07:00:00 4,8 -24,9 14 8 17 9 E 75 0 0,0
15.11.2018 06:00:00 4,1 -20,0 14 7 16 9 ESE 75 0 0,0
15.11.2018 05:00:00 4,1 -21,3 11 6 14 8 ESE 75 0 0,0
15.11.2018 04:00:00 5,3 -20,9 8 5 14 8 ESE 75 0 0,0
15.11.2018 03:00:00 3,8 -16,4 10 6 19 11 SE 75 0 0,0
15.11.2018 02:00:00 3,5 -15,2 16 9 18 10 SE 75 0 0,0
15.11.2018 01:00:00 3,3 -12,6 13 7 21 12 SSE 75 0 0,0
15.11.2018 00:00:00 2,7 -8,2 19 10 22 12 SSE 75 0 0,0
14.11.2018 23:00:00 2,9 -10,6 19 10 23 12 SE 75 0 0,0
14.11.2018 22:00:00 3,1 -10,7 21 11 22 12 SE 75 0 0,0
14.11.2018 21:00:00 2,3 -3,5 14 8 16 8 SSE 75 0 0,0
14.11.2018 20:00:00 2,4 -4,3 8 4 15 8 S 75 0 0,0
14.11.2018 19:00:00 2,0 -0,1 13 7 16 9 SSE 75 0 0,0
14.11.2018 18:00:00 2,0 0,0 10 5 19 10 SE 66 0 0,0
14.11.2018 17:00:00 1,4 1,0 19 10 21 12 E 10 39 0,0
14.11.2018 16:00:00 2,7 1,3 10 6 16 9 NE 24 60 0,0
14.11.2018 15:00:00 4,1 0,3 7 4 11 6 E 75 60 0,0
14.11.2018 14:00:00 4,0 0,4 5 3 8 4 N 63 60 0,0
14.11.2018 13:00:00 5,6 -2,0 4 2 8 5 WNW 75 60 0,0
14.11.2018 12:00:00 5,0 1,0 3 2 8 4 SW 75 58 0,0
14.11.2018 11:00:00 4,0 -0,7 5 3 8 5 SW 66 60 0,0
14.11.2018 10:00:00 3,2 -3,1 4 2 10 6 W 75 60 0,0
14.11.2018 09:00:00 0,7 -0,9 12 6 17 9 NNW 50 60 0,0
14.11.2018 08:00:00 -0,2 -0,8 16 9 22 12 NW 44 21 0,0
14.11.2018 07:00:00 -0,1 -0,6 18 10 27 15 WNW 52 0 0,0
14.11.2018 06:00:00 0,0 -0,2 23 12 30 16 WNW 50 0 0,0
14.11.2018 05:00:00 0,4 0,4 19 10 35 19 WNW 0,1 0 0,0
14.11.2018 04:00:00 0,5 0,5 23 12 36 19 W 0,1 0 0,0
14.11.2018 03:00:00 0,7 0,7 27 15 38 20 W 0,1 0 0,0
14.11.2018 02:00:00 0,9 0,9 26 14 43 23 W 0,1 0 0,0
14.11.2018 01:00:00 1,2 1,2 28 15 47 26 W 0,1 0 0,0
14.11.2018 00:00:00 1,6 1,6 29 16 53 29 W 0,1 0 0,0
13.11.2018 23:00:00 1,5 1,5 36 19 55 30 W 0,2 0 0,0
13.11.2018 22:00:00 1,7 1,7 40 22 61 33 W 0,1 0 0,0
13.11.2018 21:00:00 1,9 1,9 42 23 60 32 W 0,1 0 0,0
13.11.2018 20:00:00 2,0 2,0 38 20 65 35 W 0,1 0 0,0
13.11.2018 19:00:00 2,3 2,3 42 23 61 33 W 0,1 0 0,0
13.11.2018 18:00:00 2,9 2,9 40 21 61 33 W - 0 0,0
13.11.2018 17:00:00 2,9 2,9 35 19 51 28 W - 0 0,1
13.11.2018 16:00:00 3,0 2,9 44 24 73 39 W 0,1 0 0,0
13.11.2018 15:00:00 3,4 2,7 39 21 58 31 W 25 0 0,0
13.11.2018 14:00:00 3,7 3,4 45 24 61 33 W 50 0 0,0
13.11.2018 13:00:00 4,3 4,3 41 22 58 31 W 0,1 0 0,0
13.11.2018 12:00:00 6,0 6,0 36 19 52 28 W - 2 0,0
13.11.2018 11:00:00 8,0 6,0 32 18 51 27 W 50 37 0,0
13.11.2018 10:00:00 8,1 4,7 31 17 51 27 W 60 60 0,0
13.11.2018 09:00:00 7,6 2,4 24 13 32 18 WSW 75 24 0,0
13.11.2018 08:00:00 8,8 4,3 18 10 25 14 WNW 75 1 0,0
13.11.2018 07:00:00 8,8 4,2 10 5 15 8 WNW 75 0 0,0
13.11.2018 06:00:00 9,3 4,0 9 5 11 6 WNW 75 0 0,0
13.11.2018 05:00:00 9,3 4,1 8 5 24 13 NW 75 0 0,0
13.11.2018 04:00:00 9,3 4,2 16 9 23 12 NW 75 0 0,0
13.11.2018 03:00:00 9,2 4,2 16 8 23 12 NW 75 0 0,0
13.11.2018 02:00:00 9,9 3,2 15 8 24 13 WNW 75 0 0,0
13.11.2018 01:00:00 10,0 2,9 17 9 23 12 W 75 0 0,0
13.11.2018 00:00:00 9,7 3,1 13 7 16 9 W 75 0 0,0
12.11.2018 23:00:00 10,0 2,0 14 7 29 15 WNW 75 0 0,0
12.11.2018 22:00:00 10,2 1,6 18 10 26 14 WNW 75 0 0,0
12.11.2018 21:00:00 10,4 0,9 17 9 29 15 WNW 75 0 0,0
12.11.2018 20:00:00 10,7 -1,3 18 10 29 16 WNW 75 0 0,0
12.11.2018 19:00:00 11,4 -0,7 19 11 30 16 WNW 75 0 0,0
12.11.2018 18:00:00 12,3 0,6 22 12 32 17 WNW 75 0 0,0
12.11.2018 17:00:00 10,9 -1,0 22 12 25 13 SW 75 38 0,0
12.11.2018 16:00:00 12,4 -0,2 15 8 19 10 SSW 75 60 0,0
12.11.2018 15:00:00 13,4 -0,7 10 5 14 8 S 75 60 0,0
12.11.2018 14:00:00 13,2 3,5 9 5 15 8 SSW 75 60 0,0
12.11.2018 13:00:00 14,1 1,6 10 5 15 8 SSE 75 60 0,0
12.11.2018 12:00:00 14,5 1,7 6 3 13 7 WSW 72 60 0,0
12.11.2018 11:00:00 14,7 2,1 5 3 12 7 S 75 59 0,0
12.11.2018 10:00:00 12,6 0,1 9 5 15 8 SW 75 49 0,0
12.11.2018 09:00:00 11,8 -0,7 12 6 16 8 SSW 71 60 0,0
12.11.2018 08:00:00 10,0 1,4 13 7 23 13 SSW 75 23 0,0
12.11.2018 07:00:00 9,9 1,0 18 10 23 13 SSW 75 0 0,0
12.11.2018 06:00:00 9,0 0,7 20 11 23 12 S 75 0 0,0
12.11.2018 05:00:00 9,9 0,3 21 11 24 13 S 75 0 0,0

tt = Température de l'air
td = dewpoint
ff = Vitesse du vent
fx = gusts
dd = Direction du vent
vv = visibility
sd = Ensoleillement
rr = Quantités de précipitations

stations d'obs. à proximité